Time;durP1;ratioP1;P1;durP2;ratioP2;P2;SDS_P1;SDS_P2;PMS_P1;PMS_P2;Temp;Humidity;BMP_temperature;BMP_pressure;BME280_temperature;BME280_humidity;BME280_pressure;Samples;Min_cycle;Max_cycle;Signal;HPM_P1;HPM_P2
2023/07/10 00:00:58;;;;;;;;;;;;;;;27.47;44.34;101204.38;2263240;78;50194;-72
2023/07/10 00:04:00;;;;;;;;;;;;;;;27.46;44.25;101200.52;2276551;78;51473;-73
2023/07/10 00:07:01;;;;;;;;;;;;;;;27.47;44.34;101200.84;2255079;78;50676;-72
2023/07/10 00:10:03;;;;;;;;;;;;;;;27.47;44.35;101213.07;2254650;78;52370;-73
2023/07/10 00:13:05;;;;;;;;;;;;;;;27.46;44.44;101204.09;2276597;78;52729;-72
2023/07/10 00:16:08;;;;;;;;;;;;;;;27.46;44.29;101201.38;2240731;79;51367;-78
2023/07/10 00:19:11;;;;;;;;;;;;;;;27.46;44.30;101210.89;2239026;79;51448;-75
2023/07/10 00:22:13;;;;;;;;;;;;;;;27.46;44.20;101202.73;2218250;79;52490;-74
2023/07/10 00:25:17;;;;;;;;;;;;;;;27.46;44.32;101197.80;2218236;79;51457;-75
2023/07/10 00:28:19;;;;;;;;;;;;;;;27.46;44.25;101197.80;2238827;78;51509;-75
2023/07/10 00:31:21;;;;;;;;;;;;;;;27.44;44.34;101211.64;2218351;79;51518;-74
2023/07/10 00:34:25;;;;;;;;;;;;;;;27.44;44.21;101213.00;2201764;80;51285;-74
2023/07/10 00:37:27;;;;;;;;;;;;;;;27.45;44.26;101216.01;2212925;78;51578;-74
2023/07/10 00:40:33;;;;;;;;;;;;;;;27.44;44.25;101208.92;2230810;79;49960;-74
2023/07/10 00:43:42;;;;;;;;;;;;;;;27.44;44.15;101203.48;2253925;79;51449;-73
2023/07/10 00:46:52;;;;;;;;;;;;;;;27.44;44.13;101213.00;2230648;79;51757;-75
2023/07/10 00:49:55;;;;;;;;;;;;;;;27.43;44.13;101215.40;2253932;79;51534;-74
2023/07/10 00:52:57;;;;;;;;;;;;;;;27.42;44.15;101230.06;2253968;79;50004;-73
2023/07/10 00:56:04;;;;;;;;;;;;;;;27.43;44.03;101242.58;2253893;79;50346;-73
2023/07/10 00:59:21;;;;;;;;;;;;;;;27.43;44.01;101247.19;2252981;78;23060;-76
2023/07/10 01:02:23;;;;;;;;;;;;;;;27.42;44.07;101253.70;2280941;78;51622;-73
2023/07/10 01:05:25;;;;;;;;;;;;;;;27.42;44.01;101253.16;2280844;78;50400;-75
2023/07/10 01:08:27;;;;;;;;;;;;;;;27.42;43.99;101272.72;2280687;78;50809;-73
2023/07/10 01:11:29;;;;;;;;;;;;;;;27.41;44.00;101291.42;2259573;78;51744;-74
2023/07/10 01:14:36;;;;;;;;;;;;;;;27.41;43.91;101307.73;2280831;78;50420;-74
2023/07/10 01:17:38;;;;;;;;;;;;;;;27.40;43.97;101297.39;2280725;78;50551;-74
2023/07/10 01:20:41;;;;;;;;;;;;;;;27.40;43.95;101287.06;2280986;76;50203;-72
2023/07/10 01:23:42;;;;;;;;;;;;;;;27.39;43.87;101286.77;2235034;78;52358;-74
2023/07/10 01:26:44;;;;;;;;;;;;;;;27.39;43.87;101289.48;2280683;78;52332;-74
2023/07/10 01:29:47;;;;;;;;;;;;;;;27.38;43.87;101293.24;2266031;77;50249;-73
2023/07/10 01:32:49;;;;;;;;;;;;;;;27.38;43.83;101286.45;2279093;78;50307;-74
2023/07/10 01:35:51;;;;;;;;;;;;;;;27.37;43.83;101255.73;2257448;78;51077;-73
2023/07/10 01:38:57;;;;;;;;;;;;;;;27.36;43.76;101254.09;2278979;78;52258;-73
2023/07/10 01:41:59;;;;;;;;;;;;;;;27.35;43.67;101257.30;2278114;78;50525;-74
2023/07/10 01:45:01;;;;;;;;;;;;;;;27.36;43.64;101254.09;2257218;78;50421;-74
2023/07/10 01:48:02;;;;;;;;;;;;;;;27.35;43.54;101247.79;2257289;78;51709;-74
2023/07/10 01:51:04;;;;;;;;;;;;;;;27.35;43.54;101237.45;2257070;78;51389;-73
2023/07/10 01:54:05;;;;;;;;;;;;;;;27.33;43.45;101230.05;2279120;78;51424;-73
2023/07/10 01:57:07;;;;;;;;;;;;;;;27.34;43.39;101224.94;2278957;78;50687;-74
2023/07/10 02:00:09;;;;;;;;;;;;;;;27.33;43.37;101216.47;2246581;78;51202;-75
2023/07/10 02:03:11;;;;;;;;;;;;;;;27.33;43.29;101190.66;2234186;79;50300;-74
2023/07/10 02:06:13;;;;;;;;;;;;;;;27.33;43.22;101182.50;2243575;79;50253;-74
2023/07/10 02:09:14;;;;;;;;;;;;;;;27.32;43.18;101177.59;2243669;79;50409;-75
2023/07/10 02:12:16;;;;;;;;;;;;;;;27.32;43.15;101180.85;2243643;79;50651;-75
2023/07/10 02:15:17;;;;;;;;;;;;;;;27.32;43.09;101167.27;2233987;79;52370;-75
2023/07/10 02:18:19;;;;;;;;;;;;;;;27.31;43.06;101150.67;2243631;78;51550;-74
2023/07/10 02:21:20;;;;;;;;;;;;;;;27.30;42.99;101148.46;2244934;78;51475;-75
2023/07/10 02:24:22;;;;;;;;;;;;;;;27.30;42.97;101149.82;2236481;79;50720;-74
2023/07/10 02:27:24;;;;;;;;;;;;;;;27.30;42.93;101145.75;2236396;78;51141;-75
2023/07/10 02:30:25;;;;;;;;;;;;;;;27.30;42.85;101153.08;2268502;76;50410;-75
2023/07/10 02:33:27;;;;;;;;;;;;;;;27.30;42.81;101157.15;2236083;79;50786;-74
2023/07/10 02:36:29;;;;;;;;;;;;;;;27.29;42.76;101149.53;2223059;79;50656;-74
2023/07/10 02:39:30;;;;;;;;;;;;;;;27.29;42.76;101144.09;2222872;79;52516;-74
2023/07/10 02:42:32;;;;;;;;;;;;;;;27.29;42.73;101150.89;2222927;79;50282;-73
2023/07/10 02:45:34;;;;;;;;;;;;;;;27.30;42.69;101139.48;2223069;79;50415;-74
2023/07/10 02:48:36;;;;;;;;;;;;;;;27.30;42.69;101138.13;2259371;78;51533;-74
2023/07/10 02:51:38;;;;;;;;;;;;;;;27.29;42.65;101131.05;2236368;78;51654;-74
2023/07/10 02:54:39;;;;;;;;;;;;;;;27.28;42.67;101129.38;2259893;78;52267;-74
2023/07/10 02:57:41;;;;;;;;;;;;;;;27.28;42.65;101122.58;2280838;78;50288;-74
2023/07/10 03:00:42;;;;;;;;;;;;;;;27.27;42.64;101113.60;2250882;78;50712;-74
2023/07/10 03:03:45;;;;;;;;;;;;;;;27.29;42.59;101109.31;2233760;78;50577;-75
2023/07/10 03:06:48;;;;;;;;;;;;;;;27.27;42.58;101101.37;2251314;78;50080;-73
2023/07/10 03:09:49;;;;;;;;;;;;;;;27.27;42.58;101097.30;2243797;79;50414;-73
2023/07/10 03:12:51;;;;;;;;;;;;;;;27.28;42.57;101085.90;2243879;79;50397;-73
2023/07/10 03:16:00;;;;;;;;;;;;;;;27.26;42.58;101079.36;2222874;79;52500;-74
2023/07/10 03:19:02;;;;;;;;;;;;;;;27.27;42.55;101070.67;2242413;79;51606;-74
2023/07/10 03:22:03;;;;;;;;;;;;;;;27.26;42.47;101063.59;2243886;78;51573;-73
2023/07/10 03:25:05;;;;;;;;;;;;;;;27.27;42.49;101058.44;2222836;79;51435;-75
2023/07/10 03:28:07;;;;;;;;;;;;;;;27.26;42.44;101052.19;2207130;78;51043;-76
2023/07/10 03:31:08;;;;;;;;;;;;;;;27.26;42.44;101057.62;2239089;79;51372;-74
2023/07/10 03:34:11;;;;;;;;;;;;;;;27.26;42.42;101052.19;2243754;79;51311;-75
2023/07/10 03:37:13;;;;;;;;;;;;;;;27.25;42.41;101058.66;2243628;79;51492;-74
2023/07/10 03:40:14;;;;;;;;;;;;;;;27.26;42.41;101060.87;2222652;79;52649;-74
2023/07/10 03:43:16;;;;;;;;;;;;;;;27.25;42.39;101062.73;2222922;79;50658;-75
2023/07/10 03:46:18;;;;;;;;;;;;;;;27.26;42.39;101066.30;2243639;79;51335;-74
2023/07/10 03:49:19;;;;;;;;;;;;;;;27.26;42.35;101060.33;2222881;79;50073;-74
2023/07/10 03:52:21;;;;;;;;;;;;;;;27.25;42.31;101065.45;2199331;79;52356;-74
2023/07/10 03:55:22;;;;;;;;;;;;;;;27.25;42.30;101065.98;2222940;79;50402;-74
2023/07/10 03:58:25;;;;;;;;;;;;;;;27.26;42.29;101063.59;2222649;79;50212;-74
2023/07/10 04:01:27;;;;;;;;;;;;;;;27.26;42.24;101060.87;2255847;78;51435;-73
2023/07/10 04:04:28;;;;;;;;;;;;;;;27.26;42.21;101060.33;2243795;79;50263;-73
2023/07/10 04:07:30;;;;;;;;;;;;;;;27.25;42.24;101060.02;2233976;79;50659;-74
2023/07/10 04:10:31;;;;;;;;;;;;;;;27.25;42.21;101051.86;2243762;79;51570;-73
2023/07/10 04:13:33;;;;;;;;;;;;;;;27.24;42.19;101053.47;2243691;79;50727;-74
2023/07/10 04:16:35;;;;;;;;;;;;;;;27.24;42.18;101042.07;2234104;79;50654;-74
2023/07/10 04:19:36;;;;;;;;;;;;;;;27.25;42.21;101033.38;2234259;79;51547;-74
2023/07/10 04:22:38;;;;;;;;;;;;;;;27.24;42.19;101037.17;2234282;79;53530;-73
2023/07/10 04:25:39;;;;;;;;;;;;;;;27.24;42.15;101033.09;2243798;79;51445;-74
2023/07/10 04:28:41;;;;;;;;;;;;;;;27.24;42.13;101029.84;2256072;78;50329;-75
2023/07/10 04:31:42;;;;;;;;;;;;;;;27.25;42.10;101027.95;2249152;78;50261;-74
2023/07/10 04:34:44;;;;;;;;;;;;;;;27.24;42.09;101016.80;2281142;78;50227;-74
2023/07/10 04:37:46;;;;;;;;;;;;;;;27.23;42.09;101009.18;2280842;78;50640;-75
2023/07/10 04:40:54;;;;;;;;;;;;;;;27.23;42.05;101003.75;2235102;78;52418;-75
2023/07/10 04:43:56;;;;;;;;;;;;;;;27.23;42.03;101007.83;2281060;78;50342;-75
2023/07/10 04:46:57;;;;;;;;;;;;;;;27.24;42.04;101006.75;2259638;78;50650;-75
2023/07/10 04:49:59;;;;;;;;;;;;;;;27.26;42.00;101009.25;2281039;78;51447;-75
2023/07/10 04:53:00;;;;;;;;;;;;;;;27.26;42.00;101008.71;2259713;78;51633;-74
2023/07/10 04:56:03;;;;;;;;;;;;;;;27.26;41.88;101014.68;2280874;78;51415;-73
2023/07/10 04:59:04;;;;;;;;;;;;;;;27.26;42.11;101020.11;2253038;78;52211;-73
2023/07/10 05:02:06;;;;;;;;;;;;;;;27.28;41.97;101031.55;2250126;78;50248;-73
2023/07/10 05:05:08;;;;;;;;;;;;;;;27.30;41.72;101048.46;2199043;79;52927;-72
2023/07/10 05:08:09;;;;;;;;;;;;;;;27.29;41.56;101065.30;2222748;79;50338;-73
2023/07/10 05:11:11;;;;;;;;;;;;;;;27.27;41.64;101064.70;2199060;79;51739;-73
2023/07/10 05:14:12;;;;;;;;;;;;;;;27.25;41.72;101047.79;2243703;79;51730;-75
2023/07/10 05:17:14;;;;;;;;;;;;;;;27.27;41.74;101062.52;2198974;79;52562;-76
2023/07/10 05:20:16;;;;;;;;;;;;;;;27.23;39.91;101085.76;2231315;78;51434;-76
2023/07/10 05:23:17;;;;;;;;;;;;;;;27.16;39.65;101103.50;2259797;78;51405;-73
2023/07/10 05:26:21;;;;;;;;;;;;;;;27.09;39.50;101119.87;2280659;78;51493;-74
2023/07/10 05:29:23;;;;;;;;;;;;;;;27.06;39.30;101126.30;2252216;78;49488;-74
2023/07/10 05:32:24;;;;;;;;;;;;;;;27.01;38.47;101174.51;2257446;78;50417;-74
2023/07/10 05:35:26;;;;;;;;;;;;;;;26.98;38.41;101240.16;2279162;78;50305;-75
2023/07/10 05:38:29;;;;;;;;;;;;;;;26.90;38.95;101230.41;2278911;78;50236;-74
2023/07/10 05:41:30;;;;;;;;;;;;;;;26.90;39.28;101207.33;2233086;78;52365;-75
2023/07/10 05:44:32;;;;;;;;;;;;;;;26.92;39.55;101288.05;2257293;78;51537;-74
2023/07/10 05:47:33;;;;;;;;;;;;;;;26.94;39.85;101223.98;2257366;78;50351;-74
2023/07/10 05:50:35;;;;;;;;;;;;;;;26.96;40.02;101231.39;2257744;78;50273;-75
2023/07/10 05:53:37;;;;;;;;;;;;;;;26.97;40.20;101236.29;2257667;78;51032;-75
2023/07/10 05:56:38;;;;;;;;;;;;;;;26.99;40.35;101227.39;2257285;78;50278;-74
2023/07/10 05:59:40;;;;;;;;;;;;;;;26.98;40.36;101212.99;2244163;77;53710;-76
2023/07/10 06:02:42;;;;;;;;;;;;;;;26.99;40.43;101200.23;2279086;78;51420;-75
2023/07/10 06:05:45;;;;;;;;;;;;;;;27.00;40.29;101201.38;2233382;78;51432;-75
2023/07/10 06:08:47;;;;;;;;;;;;;;;26.98;40.37;101174.97;2277929;78;51748;-75
2023/07/10 06:11:48;;;;;;;;;;;;;;;27.01;40.50;101150.59;2257696;78;51591;-76
2023/07/10 06:14:50;;;;;;;;;;;;;;;27.01;40.64;101104.42;2279261;78;50760;-74
2023/07/10 06:17:52;;;;;;;;;;;;;;;27.02;40.59;101082.45;2257354;78;51534;-74
2023/07/10 06:20:54;;;;;;;;;;;;;;;27.02;40.68;101074.84;2257800;78;50227;-73
2023/07/10 06:23:55;;;;;;;;;;;;;;;27.01;41.36;101105.25;2248602;76;51633;-75
2023/07/10 06:26:57;;;;;;;;;;;;;;;26.95;42.70;101115.68;2243608;79;51497;-74
2023/07/10 06:29:59;;;;;;;;;;;;;;;26.29;44.47;101095.48;2237610;78;51125;-74
2023/07/10 06:33:01;;;;;;;;;;;;;;;26.18;45.67;101094.87;2257903;78;50189;-74
2023/07/10 06:36:04;;;;;;;;;;;;;;;26.02;46.45;101093.03;2257747;78;50376;-74
2023/07/10 06:39:05;;;;;;;;;;;;;;;25.81;47.29;101090.66;2278915;78;50700;-72
2023/07/10 06:42:07;;;;;;;;;;;;;;;25.89;46.68;101084.98;2232714;78;52452;-74
2023/07/10 06:45:10;;;;;;;;;;;;;;;25.91;46.49;101095.63;2280678;76;51466;-73
2023/07/10 06:48:11;;;;;;;;;;;;;;;25.84;47.15;101078.90;2267750;78;50330;-76
2023/07/10 06:51:13;;;;;;;;;;;;;;;25.53;47.94;101062.09;2248937;78;50661;-72
2023/07/10 06:54:14;;;;;;;;;;;;;;;25.40;48.35;101063.01;2248823;78;52580;-73
2023/07/10 06:57:16;;;;;;;;;;;;;;;25.31;48.20;101066.22;2248743;78;51441;-75
2023/07/10 07:00:18;;;;;;;;;;;;;;;25.40;47.84;101063.01;2248535;78;50702;-74
2023/07/10 07:03:20;;;;;;;;;;;;;;;25.05;49.32;101061.73;2314363;76;50749;-73
2023/07/10 07:06:22;;;;;;;;;;;;;;;25.20;48.80;101064.52;2328038;76;50428;-73
2023/07/10 07:09:24;;;;;;;;;;;;;;;25.20;49.58;101059.59;2296221;76;50086;-74
2023/07/10 07:12:26;;;;;;;;;;;;;;;25.30;48.86;101055.88;2328254;76;51617;-74
2023/07/10 07:15:28;;;;;;;;;;;;;;;25.02;49.86;101064.34;2328264;76;51619;-74
2023/07/10 07:18:31;;;;;;;;;;;;;;;24.82;49.98;101061.75;2295984;76;50098;-75
2023/07/10 07:21:33;;;;;;;;;;;;;;;24.65;50.84;101049.21;2296755;76;51553;-75
2023/07/10 07:24:36;;;;;;;;;;;;;;;24.68;50.94;101051.48;2296452;76;51326;-75
2023/07/10 07:27:38;;;;;;;;;;;;;;;24.64;50.90;101044.86;2324382;76;50662;-74
2023/07/10 07:30:46;;;;;;;;;;;;;;;24.94;50.38;101045.12;2266495;78;50640;-74
2023/07/10 07:33:42;;;;;;;;;;;;;;;25.11;49.79;101044.10;2259084;78;22934;-75
2023/07/10 07:36:44;;;;;;;;;;;;;;;25.18;49.55;101038.69;2259308;78;51528;-74
2023/07/10 07:39:46;;;;;;;;;;;;;;;25.37;49.01;101044.48;2281010;78;51379;-75
2023/07/10 07:42:47;;;;;;;;;;;;;;;25.33;48.95;101032.95;2259721;78;50787;-73
2023/07/10 07:45:53;;;;;;;;;;;;;;;25.39;48.67;101036.98;2259509;78;50693;-74
2023/07/10 07:48:54;;;;;;;;;;;;;;;25.57;48.06;101034.05;2280697;78;51411;-75
2023/07/10 07:51:56;;;;;;;;;;;;;;;25.53;47.94;101028.22;2281170;76;50398;-73
2023/07/10 07:54:58;;;;;;;;;;;;;;;25.42;47.84;101035.18;2235075;78;51162;-75
2023/07/10 07:57:59;;;;;;;;;;;;;;;25.46;47.66;101031.52;2252723;78;50619;-73
2023/07/10 08:01:01;;;;;;;;;;;;;;;25.76;47.24;101026.26;2267056;78;51436;-74
2023/07/10 08:04:03;;;;;;;;;;;;;;;25.83;47.21;101024.86;2257518;78;52308;-75
2023/07/10 08:07:05;;;;;;;;;;;;;;;25.85;46.87;101018.72;2278965;78;50798;-74
2023/07/10 08:10:07;;;;;;;;;;;;;;;25.93;46.25;101025.74;2257638;78;50128;-74
2023/07/10 08:13:09;;;;;;;;;;;;;;;25.99;46.10;101028.91;2257776;78;50343;-73
2023/07/10 08:16:11;;;;;;;;;;;;;;;26.07;46.02;101029.97;2278999;78;50338;-74
2023/07/10 08:19:12;;;;;;;;;;;;;;;26.12;45.54;101027.95;2232704;78;51561;-74
2023/07/10 08:22:14;;;;;;;;;;;;;;;26.11;45.42;101032.55;2257685;78;51490;-75
2023/07/10 08:25:16;;;;;;;;;;;;;;;26.19;45.03;101034.96;2279220;78;50709;-75
2023/07/10 08:28:17;;;;;;;;;;;;;;;26.20;45.02;101035.28;2225494;78;51393;-76
2023/07/10 08:31:19;;;;;;;;;;;;;;;26.26;45.12;101028.95;2246214;78;51740;-75
2023/07/10 08:34:21;;;;;;;;;;;;;;;26.27;45.14;101025.17;2279052;78;50706;-74
2023/07/10 08:37:23;;;;;;;;;;;;;;;26.36;44.85;101031.64;2274373;76;51637;-75
2023/07/10 08:40:29;;;;;;;;;;;;;;;26.44;44.82;101023.23;2248955;78;51482;-74
2023/07/10 08:43:31;;;;;;;;;;;;;;;26.42;45.21;101017.19;2247617;78;52736;-74
2023/07/10 08:46:33;;;;;;;;;;;;;;;26.41;45.14;101019.58;2224365;78;52529;-75
2023/07/10 08:49:38;;;;;;;;;;;;;;;26.49;44.85;101019.30;2267763;78;51600;-74
2023/07/10 08:52:51;;;;;;;;;;;;;;;26.59;44.72;101021.49;2267970;78;51574;-73
2023/07/10 08:56:00;;;;;;;;;;;;;;;26.61;44.55;101024.28;2248686;78;50922;-75
2023/07/10 08:59:09;;;;;;;;;;;;;;;26.69;44.29;101030.78;2256385;78;50679;-75
2023/07/10 09:02:16;;;;;;;;;;;;;;;26.73;44.20;101024.89;2268386;78;50778;-76
2023/07/10 09:05:27;;;;;;;;;;;;;;;26.68;44.48;101018.78;2249000;78;50317;-75
2023/07/10 09:08:29;;;;;;;;;;;;;;;26.75;44.37;101022.25;2259225;78;52268;-74
2023/07/10 09:11:30;;;;;;;;;;;;;;;26.86;44.23;101019.28;2280836;78;51474;-74
2023/07/10 09:14:33;;;;;;;;;;;;;;;26.91;44.01;101018.06;2259338;78;50412;-74
2023/07/10 09:17:46;;;;;;;;;;;;;;;26.88;43.94;101007.66;2273220;78;51565;-75
2023/07/10 09:20:49;;;;;;;;;;;;;;;26.87;43.70;100995.12;2259136;78;51173;-74
2023/07/10 09:23:51;;;;;;;;;;;;;;;26.91;43.44;100996.34;2280530;78;52368;-75
2023/07/10 09:26:53;;;;;;;;;;;;;;;26.96;43.27;101001.91;2280329;78;50282;-75
2023/07/10 09:29:54;;;;;;;;;;;;;;;27.07;43.05;101011.97;2250095;78;50321;-75
2023/07/10 09:33:03;;;;;;;;;;;;;;;26.97;42.92;101009.52;2253536;78;51644;-75
2023/07/10 09:36:06;;;;;;;;;;;;;;;26.93;42.83;101011.88;2257327;78;50512;-74
2023/07/10 09:39:09;;;;;;;;;;;;;;;26.98;43.00;101009.30;2278035;78;49977;-74
2023/07/10 09:42:12;;;;;;;;;;;;;;;27.05;42.78;101004.61;2278853;78;50290;-75
2023/07/10 09:45:15;;;;;;;;;;;;;;;27.09;42.82;101007.14;2256003;78;51723;-74
2023/07/10 09:48:34;;;;;;;;;;;;;;;27.13;42.71;101000.73;2249011;76;51497;-75
2023/07/10 09:51:35;;;;;;;;;;;;;;;27.23;42.34;101020.05;2261411;76;51429;-75
2023/07/10 09:54:37;;;;;;;;;;;;;;;27.21;41.72;101010.47;2280860;78;51478;-74
2023/07/10 09:57:47;;;;;;;;;;;;;;;27.28;41.52;101014.75;2256697;78;51922;-75
2023/07/10 10:00:51;;;;;;;;;;;;;;;27.17;41.40;101001.09;2259945;78;50322;-76
2023/07/10 10:03:53;;;;;;;;;;;;;;;27.17;41.55;100988.33;2257363;78;51536;-77
2023/07/10 10:06:55;;;;;;;;;;;;;;;27.17;41.98;100992.94;2278795;78;50547;-77
2023/07/10 10:10:04;;;;;;;;;;;;;;;27.26;42.16;100989.69;2257497;78;49670;-76
2023/07/10 10:13:19;;;;;;;;;;;;;;;27.28;42.52;100984.00;2257500;78;50840;-75
2023/07/10 10:16:25;;;;;;;;;;;;;;;27.32;42.65;100990.64;2278423;78;51527;-75
2023/07/10 10:19:28;;;;;;;;;;;;;;;27.24;42.92;100990.98;2278813;78;50497;-76
2023/07/10 10:22:30;;;;;;;;;;;;;;;27.38;42.71;100988.34;2254264;78;51021;-75
2023/07/10 10:25:34;;;;;;;;;;;;;;;27.38;42.82;100989.69;2257212;78;51492;-75
2023/07/10 10:28:40;;;;;;;;;;;;;;;27.41;43.08;100997.91;2266567;78;50173;-74
2023/07/10 10:31:52;;;;;;;;;;;;;;;27.36;43.13;100998.09;2267936;78;50677;-75
2023/07/10 10:35:01;;;;;;;;;;;;;;;27.51;42.93;100997.66;2247724;76;52351;-75
2023/07/10 10:38:07;;;;;;;;;;;;;;;27.44;43.16;100994.21;2277771;76;51350;-74
2023/07/10 10:41:10;;;;;;;;;;;;;;;27.47;43.05;100991.56;2328032;76;51065;-74
2023/07/10 10:44:19;;;;;;;;;;;;;;;27.61;42.90;100979.92;2307244;76;50352;-75
2023/07/10 10:47:35;;;;;;;;;;;;;;;27.47;43.04;100969.28;2328069;76;51399;-73
2023/07/10 10:50:41;;;;;;;;;;;;;;;27.57;42.87;100976.32;2327860;76;50312;-73
2023/07/10 10:53:50;;;;;;;;;;;;;;;27.58;42.49;100965.73;2327989;76;50757;-74
2023/07/10 10:57:09;;;;;;;;;;;;;;;27.57;41.94;100958.65;2327801;76;50318;-74
2023/07/10 11:00:12;;;;;;;;;;;;;;;27.56;42.35;100956.16;2206026;80;52662;-73
2023/07/10 11:03:15;;;;;;;;;;;;;;;27.57;42.50;100953.21;2210129;80;51520;-73
2023/07/10 11:06:37;;;;;;;;;;;;;;;27.62;42.61;100957.95;2210116;80;50696;-73
2023/07/10 11:09:40;;;;;;;;;;;;;;;27.61;42.91;100956.28;2140248;83;51568;-73
2023/07/10 11:12:41;;;;;;;;;;;;;;;27.58;43.52;100950.78;2140692;83;51540;-74
2023/07/10 11:15:43;;;;;;;;;;;;;;;27.66;43.29;100952.31;2140898;83;51466;-74
2023/07/10 11:18:45;;;;;;;;;;;;;;;27.69;43.11;100957.81;2176806;81;50338;-74
2023/07/10 11:21:46;;;;;;;;;;;;;;;27.74;42.64;100956.57;2176545;81;51601;-73
2023/07/10 11:24:48;;;;;;;;;;;;;;;27.72;42.89;100955.97;2152386;81;52374;-74
2023/07/10 11:27:50;;;;;;;;;;;;;;;27.75;42.80;100956.34;2176551;81;51486;-73
2023/07/10 11:30:53;;;;;;;;;;;;;;;27.72;42.39;100961.41;2177233;81;51446;-74
2023/07/10 11:34:02;;;;;;;;;;;;;;;27.71;42.11;100959.23;2185124;80;51498;-73
2023/07/10 11:37:04;;;;;;;;;;;;;;;27.71;41.97;100961.12;2214556;79;51892;-74
2023/07/10 11:40:25;;;;;;;;;;;;;;;27.72;41.68;100954.61;2203561;78;50669;-74
2023/07/10 11:43:28;;;;;;;;;;;;;;;27.65;42.26;100962.91;2309096;77;51391;-74
2023/07/10 11:46:30;;;;;;;;;;;;;;;27.72;42.33;100955.97;2273668;78;50698;-74
2023/07/10 11:49:37;;;;;;;;;;;;;;;27.68;42.84;100960.25;2251533;78;51771;-74
2023/07/10 11:52:39;;;;;;;;;;;;;;;27.67;43.61;100968.94;2308423;77;52170;-74
2023/07/10 11:56:01;;;;;;;;;;;;;;;27.64;43.93;100966.67;2247553;78;50787;-74
2023/07/10 11:59:16;;;;;;;;;;;;;;;27.71;43.96;100961.12;2253553;78;50515;-74
2023/07/10 12:02:22;;;;;;;;;;;;;;;27.73;44.49;100968.52;2246130;78;51718;-74
2023/07/10 12:05:29;;;;;;;;;;;;;;;27.74;44.40;100969.63;2257985;77;51428;-74
2023/07/10 12:08:30;;;;;;;;;;;;;;;27.77;44.64;100965.61;2253783;79;52317;-74
2023/07/10 12:11:33;;;;;;;;;;;;;;;27.80;44.47;100976.03;2254161;78;51556;-75
2023/07/10 12:14:35;;;;;;;;;;;;;;;27.80;44.12;100971.42;2232218;79;51834;-74
2023/07/10 12:17:37;;;;;;;;;;;;;;;27.76;44.17;100968.05;2254679;79;51477;-73
2023/07/10 12:20:38;;;;;;;;;;;;;;;27.77;44.14;100977.84;2256805;77;51555;-74
2023/07/10 12:23:41;;;;;;;;;;;;;;;27.72;44.47;100979.94;2257796;79;50511;-74
2023/07/10 12:26:43;;;;;;;;;;;;;;;27.74;44.60;100976.42;2253432;79;50681;-75
2023/07/10 12:29:48;;;;;;;;;;;;;;;27.76;44.53;100973.48;2257270;77;50425;-74
2023/07/10 12:32:51;;;;;;;;;;;;;;;27.77;44.41;100981.92;2289750;77;51592;-74
2023/07/10 12:35:52;;;;;;;;;;;;;;;27.80;44.46;100974.14;2289815;77;50514;-75
2023/07/10 12:38:55;;;;;;;;;;;;;;;27.78;44.73;100980.88;2265640;77;51658;-74
2023/07/10 12:41:56;;;;;;;;;;;;;;;27.81;45.09;100974.98;2289624;77;51466;-74
2023/07/10 12:44:58;;;;;;;;;;;;;;;27.77;45.75;100974.62;2289727;77;51439;-74
2023/07/10 12:48:07;;;;;;;;;;;;;;;27.78;46.04;100976.80;2289439;77;50167;-75
2023/07/10 12:51:08;;;;;;;;;;;;;;;27.77;46.25;100971.90;2255397;77;52621;-74
2023/07/10 12:54:11;;;;;;;;;;;;;;;27.79;46.12;100970.28;2289730;77;51532;-74
2023/07/10 12:57:21;;;;;;;;;;;;;;;27.73;46.12;100987.02;2288350;77;51508;-74
2023/07/10 13:00:22;;;;;;;;;;;;;;;27.73;46.56;100996.53;2274060;77;50294;-75
2023/07/10 13:03:29;;;;;;;;;;;;;;;27.77;46.85;101000.95;2291524;77;50222;-75
2023/07/10 13:06:31;;;;;;;;;;;;;;;27.78;47.42;100999.91;2290829;76;51584;-76
2023/07/10 13:09:32;;;;;;;;;;;;;;;27.83;47.05;101007.40;2267858;77;50630;-75
2023/07/10 13:12:36;;;;;;;;;;;;;;;27.79;47.24;101005.09;2291404;77;50330;-75
2023/07/10 13:15:39;;;;;;;;;;;;;;;27.79;46.99;101006.99;2268384;77;52702;-75
2023/07/10 13:18:41;;;;;;;;;;;;;;;27.73;47.09;101010.13;2291429;77;50875;-75
2023/07/10 13:21:42;;;;;;;;;;;;;;;27.77;46.80;101024.92;2291685;77;51455;-75
2023/07/10 13:24:44;;;;;;;;;;;;;;;27.72;46.86;101045.19;2267940;77;51567;-75
2023/07/10 13:27:45;;;;;;;;;;;;;;;27.70;46.75;101042.41;2264083;77;51236;-76
2023/07/10 13:30:47;;;;;;;;;;;;;;;27.69;46.67;101036.66;2285415;77;51517;-76
2023/07/10 13:33:49;;;;;;;;;;;;;;;27.67;46.67;101036.06;2289844;77;51501;-74
2023/07/10 13:36:51;;;;;;;;;;;;;;;27.68;46.52;101042.63;2289601;77;51486;-75
2023/07/10 13:39:52;;;;;;;;;;;;;;;27.70;46.50;101056.00;2265777;77;52511;-76
2023/07/10 13:42:54;;;;;;;;;;;;;;;27.66;46.58;101050.19;2265874;77;50645;-75
2023/07/10 13:46:01;;;;;;;;;;;;;;;27.70;46.50;101062.80;2290261;77;51306;-75
2023/07/10 13:49:07;;;;;;;;;;;;;;;27.70;46.34;101061.44;2289572;77;51351;-75
2023/07/10 13:52:16;;;;;;;;;;;;;;;27.72;46.31;101079.69;2265721;77;51806;-74
2023/07/10 13:55:17;;;;;;;;;;;;;;;27.75;46.22;101080.61;2266098;77;51508;-76
2023/07/10 13:58:20;;;;;;;;;;;;;;;27.73;46.35;101082.72;2263927;77;51433;-75
2023/07/10 14:01:22;;;;;;;;;;;;;;;27.72;46.26;101079.69;2285991;77;50326;-75
2023/07/10 14:04:24;;;;;;;;;;;;;;;27.73;46.25;101090.34;2265961;77;52450;-77
2023/07/10 14:07:26;;;;;;;;;;;;;;;27.74;46.12;101087.91;2265847;77;51490;-75
2023/07/10 14:10:27;;;;;;;;;;;;;;;27.73;46.14;101094.42;2289700;77;51466;-75
2023/07/10 14:13:29;;;;;;;;;;;;;;;27.75;45.99;101095.56;2289650;77;51410;-75
2023/07/10 14:16:31;;;;;;;;;;;;;;;27.77;45.95;101090.69;2265730;77;51775;-76
2023/07/10 14:19:33;;;;;;;;;;;;;;;27.76;45.90;101089.05;2289722;77;52170;-75
2023/07/10 14:22:34;;;;;;;;;;;;;;;27.76;45.92;101098.56;2266127;77;51430;-75
2023/07/10 14:25:36;;;;;;;;;;;;;;;27.72;46.11;101101.44;2266151;77;51421;-76
2023/07/10 14:28:37;;;;;;;;;;;;;;;27.74;45.93;101111.02;2259963;77;52607;-75
2023/07/10 14:31:39;;;;;;;;;;;;;;;27.75;45.85;101105.90;2254620;77;51297;-75
2023/07/10 14:34:41;;;;;;;;;;;;;;;27.77;45.89;101107.00;2266061;77;51560;-75
2023/07/10 14:37:42;;;;;;;;;;;;;;;27.78;45.93;101104.60;2289742;77;51581;-75
2023/07/10 14:40:44;;;;;;;;;;;;;;;27.76;45.90;101102.11;2265835;77;52620;-75
2023/07/10 14:43:45;;;;;;;;;;;;;;;27.80;45.76;101095.69;2265836;77;50683;-75
2023/07/10 14:46:47;;;;;;;;;;;;;;;27.80;45.74;101093.78;2289686;77;51424;-76
2023/07/10 14:49:49;;;;;;;;;;;;;;;27.83;45.65;101075.38;2266102;77;50314;-75
2023/07/10 14:52:50;;;;;;;;;;;;;;;27.85;45.57;101087.69;2241109;77;51529;-76
2023/07/10 14:55:53;;;;;;;;;;;;;;;27.83;45.61;101081.64;2289983;77;51563;-76
2023/07/10 14:58:54;;;;;;;;;;;;;;;27.78;45.67;101076.05;2280136;77;51512;-75
2023/07/10 15:01:56;;;;;;;;;;;;;;;27.81;45.66;101076.97;2290287;77;50454;-76
2023/07/10 15:04:57;;;;;;;;;;;;;;;27.81;45.67;101075.61;2268354;77;51356;-75
2023/07/10 15:07:59;;;;;;;;;;;;;;;27.79;45.70;101073.61;2291757;77;51468;-75
2023/07/10 15:11:01;;;;;;;;;;;;;;;27.80;45.68;101069.85;2291644;76;50292;-76
2023/07/10 15:14:04;;;;;;;;;;;;;;;27.77;45.78;101069.79;2291537;77;52320;-75
2023/07/10 15:17:07;;;;;;;;;;;;;;;27.73;45.89;101064.52;2289710;77;51462;-77
2023/07/10 15:20:19;;;;;;;;;;;;;;;27.77;45.80;101067.58;2254732;77;52225;-74
2023/07/10 15:23:21;;;;;;;;;;;;;;;27.77;45.80;101073.02;2289802;77;51501;-75
2023/07/10 15:26:23;;;;;;;;;;;;;;;27.75;45.81;101067.00;2265776;77;51693;-75
2023/07/10 15:29:24;;;;;;;;;;;;;;;27.76;45.82;101065.94;2266011;77;51464;-75
2023/07/10 15:32:26;;;;;;;;;;;;;;;27.76;45.80;101072.73;2265884;77;50266;-75
2023/07/10 15:35:29;;;;;;;;;;;;;;;27.75;45.76;101069.19;2289898;77;50339;-75
2023/07/10 15:38:31;;;;;;;;;;;;;;;27.78;45.72;101074.69;2289550;77;52593;-75